createdAt,value
2019-05-11T00:00:44.614Z,52.03
2019-05-11T00:03:13.317Z,49.39
2019-05-11T00:05:41.965Z,49.39
2019-05-11T00:08:10.826Z,49.11
2019-05-11T00:10:39.998Z,49.02
2019-05-11T00:13:08.585Z,49.02
2019-05-11T00:15:37.451Z,49.49
2019-05-11T00:18:06.298Z,48.87
2019-05-11T00:20:35.145Z,48.76
2019-05-11T00:23:03.747Z,49.07
2019-05-11T00:25:32.365Z,49.07
2019-05-11T00:28:01.112Z,48.55
2019-05-11T00:30:29.932Z,48.98
2019-05-11T00:32:58.797Z,48.98
2019-05-11T00:35:27.731Z,49.38
2019-05-11T00:37:56.322Z,49.56
2019-05-11T00:40:25.024Z,49.56
2019-05-11T00:42:53.624Z,48.65
2019-05-11T00:45:22.612Z,49.24
2019-05-11T00:47:51.209Z,49.31
2019-05-11T00:50:19.918Z,49.31
2019-05-11T00:52:48.586Z,47.90
2019-05-11T00:55:17.201Z,49.65
2019-05-11T00:57:46.087Z,49.65
2019-05-11T01:00:15.185Z,46.73
2019-05-11T01:02:43.954Z,48.20
2019-05-11T01:05:12.705Z,47.57
2019-05-11T01:07:41.294Z,47.57
2019-05-11T01:10:22.968Z,48.70
2019-05-11T01:12:40.477Z,49.34
2019-05-11T01:15:09.541Z,48.97
2019-05-11T01:17:38.151Z,48.97
2019-05-11T01:20:07.137Z,48.21
2019-05-11T01:22:35.776Z,49.76
2019-05-11T01:25:04.876Z,49.94
2019-05-11T01:27:33.723Z,49.94
2019-05-11T01:30:02.599Z,47.71
2019-05-11T01:32:31.259Z,48.43
2019-05-11T01:35:00.175Z,48.43
2019-05-11T01:37:28.777Z,47.14
2019-05-11T01:39:57.635Z,48.51
2019-05-11T01:42:26.470Z,48.51
2019-05-11T01:44:55.065Z,49.01
2019-05-11T01:47:23.684Z,49.33
2019-05-11T01:49:52.295Z,48.65
2019-05-11T01:52:21.173Z,48.65
2019-05-11T01:54:49.839Z,49.56
2019-05-11T01:57:18.469Z,49.56
2019-05-11T01:59:47.371Z,50.02
2019-05-11T02:02:15.996Z,50.02
2019-05-11T02:04:44.615Z,49.60
2019-05-11T02:07:13.516Z,49.29
2019-05-11T02:09:42.228Z,49.63
2019-05-11T02:12:10.857Z,49.92
2019-05-11T02:14:39.461Z,49.92
2019-05-11T02:17:08.129Z,48.21
2019-05-11T02:19:36.794Z,48.21
2019-05-11T02:22:05.928Z,48.39
2019-05-11T02:24:34.531Z,49.92
2019-05-11T02:27:03.133Z,49.64
2019-05-11T02:29:31.766Z,49.64
2019-05-11T02:32:00.439Z,49.53
2019-05-11T02:34:29.042Z,49.61
2019-05-11T02:36:57.918Z,49.72
2019-05-11T02:39:26.599Z,50.10
2019-05-11T02:41:55.307Z,50.10
2019-05-11T02:44:24.148Z,49.50
2019-05-11T02:46:52.775Z,49.34
2019-05-11T02:49:21.377Z,50.02
2019-05-11T02:51:50.372Z,50.02
2019-05-11T02:54:19.733Z,51.02
2019-05-11T02:56:48.363Z,49.48
2019-05-11T02:59:16.948Z,49.79
2019-05-11T03:01:45.545Z,50.06
2019-05-11T03:04:14.186Z,48.93
2019-05-11T03:06:42.915Z,48.93
2019-05-11T03:09:11.782Z,49.89
2019-05-11T03:11:54.858Z,50.14
2019-05-11T03:14:11.428Z,50.14
2019-05-11T03:16:40.061Z,49.49
2019-05-11T03:19:08.906Z,49.19
2019-05-11T03:21:37.510Z,49.62
2019-05-11T03:24:06.303Z,50.71
2019-05-11T03:26:34.940Z,49.42
2019-05-11T03:29:03.781Z,49.42
2019-05-11T03:31:32.799Z,49.40
2019-05-11T03:34:01.413Z,48.80
2019-05-11T03:36:30.091Z,50.16
2019-05-11T03:38:58.689Z,50.16
2019-05-11T03:41:27.290Z,49.25
2019-05-11T03:43:56.121Z,48.60
2019-05-11T03:46:24.832Z,48.65
2019-05-11T03:48:53.695Z,50.97
2019-05-11T03:51:22.311Z,50.97
2019-05-11T03:53:50.982Z,50.27
2019-05-11T03:56:19.617Z,50.27
2019-05-11T03:58:48.250Z,50.24
2019-05-11T04:01:16.876Z,48.83
2019-05-11T04:03:45.565Z,49.58
2019-05-11T04:06:14.160Z,49.37
2019-05-11T04:08:42.815Z,50.36
2019-05-11T04:11:11.435Z,49.49
2019-05-11T04:13:40.033Z,49.49
2019-05-11T04:16:08.757Z,49.56
2019-05-11T04:18:37.646Z,51.34
2019-05-11T04:21:06.491Z,49.71
2019-05-11T04:23:35.094Z,50.78
2019-05-11T04:26:04.049Z,51.20
2019-05-11T04:28:32.660Z,50.56
2019-05-11T04:31:01.365Z,50.56
2019-05-11T04:33:33.007Z,51.33
2019-05-11T04:36:00.556Z,51.33
2019-05-11T04:38:29.161Z,50.69
2019-05-11T04:40:57.994Z,50.57
2019-05-11T04:43:26.851Z,50.57
2019-05-11T04:45:55.466Z,50.25
2019-05-11T04:48:24.092Z,50.63
2019-05-11T04:50:52.738Z,50.06
2019-05-11T04:53:21.441Z,50.06
2019-05-11T04:55:50.288Z,51.30
2019-05-11T04:58:19.202Z,51.45
2019-05-11T05:00:48.051Z,49.04
2019-05-11T05:03:16.964Z,50.65
2019-05-11T05:05:45.605Z,51.63
2019-05-11T05:08:14.193Z,50.76
2019-05-11T05:10:42.870Z,50.76
2019-05-11T05:13:11.485Z,51.77
2019-05-11T05:15:40.383Z,50.10
2019-05-11T05:18:09.085Z,50.14
2019-05-11T05:20:37.703Z,50.14
2019-05-11T05:23:06.413Z,50.01
2019-05-11T05:25:35.324Z,49.89
2019-05-11T05:28:03.994Z,49.26
2019-05-11T05:30:32.648Z,50.80
2019-05-11T05:33:01.404Z,49.89
2019-05-11T05:35:30.015Z,51.53
2019-05-11T05:37:58.744Z,50.26
2019-05-11T05:40:27.384Z,50.82
2019-05-11T05:42:56.019Z,50.82
2019-05-11T05:45:24.730Z,49.80
2019-05-11T05:47:53.504Z,50.14
2019-05-11T05:50:22.231Z,50.14
2019-05-11T05:52:50.956Z,51.20
2019-05-11T05:55:19.844Z,51.20
2019-05-11T05:57:49.532Z,50.15
2019-05-11T06:00:18.334Z,50.25
2019-05-11T06:02:46.947Z,50.54
2019-05-11T06:05:15.924Z,51.30
2019-05-11T06:07:44.739Z,50.85
2019-05-11T06:10:13.766Z,50.53
2019-05-11T06:12:42.618Z,48.93
2019-05-11T06:15:11.409Z,48.49
2019-05-11T06:17:40.047Z,48.35
2019-05-11T06:20:09.321Z,49.20
2019-05-11T06:22:38.200Z,48.57
2019-05-11T06:25:07.190Z,48.86
2019-05-11T06:27:35.824Z,48.72
2019-05-11T06:30:04.956Z,49.18
2019-05-11T06:32:33.816Z,48.84
2019-05-11T06:35:02.834Z,50.60
2019-05-11T06:37:31.512Z,49.53
2019-05-11T06:40:00.094Z,49.53
2019-05-11T06:42:28.765Z,49.37
2019-05-11T06:44:57.717Z,48.23
2019-05-11T06:47:26.318Z,48.67
2019-05-11T06:49:55.072Z,49.33
2019-05-11T06:52:23.700Z,49.51
2019-05-11T06:54:52.598Z,49.59
2019-05-11T06:57:21.301Z,49.12
2019-05-11T06:59:49.931Z,49.12
2019-05-11T07:02:18.600Z,50.18
2019-05-11T07:04:47.264Z,50.44
2019-05-11T07:07:15.881Z,48.03
2019-05-11T07:09:44.522Z,49.16
2019-05-11T07:12:13.317Z,49.33
2019-05-11T07:14:41.914Z,48.92
2019-05-11T07:17:10.519Z,49.69
2019-05-11T07:19:39.133Z,49.56
2019-05-11T07:22:07.859Z,51.69
2019-05-11T07:24:36.552Z,48.78
2019-05-11T07:27:05.303Z,50.11
2019-05-11T07:29:34.017Z,49.67
2019-05-11T07:32:10.148Z,50.81
2019-05-11T07:34:33.253Z,50.26
2019-05-11T07:37:01.897Z,48.45
2019-05-11T07:39:31.186Z,48.86
2019-05-11T07:42:00.152Z,47.19
2019-05-11T07:44:37.952Z,47.44
2019-05-11T07:46:59.458Z,47.44
2019-05-11T07:49:29.216Z,48.70
2019-05-11T07:51:58.787Z,48.33
2019-05-11T07:54:28.345Z,46.88
2019-05-11T07:56:58.402Z,47.81
2019-05-11T07:59:28.924Z,47.85
2019-05-11T08:01:58.791Z,46.16
2019-05-11T08:04:28.833Z,46.74
2019-05-11T08:06:58.413Z,47.10
2019-05-11T08:09:27.963Z,46.76
2019-05-11T08:11:58.524Z,47.46
2019-05-11T08:14:28.760Z,46.14
2019-05-11T08:16:59.416Z,45.70
2019-05-11T08:19:28.596Z,48.38
2019-05-11T08:21:58.225Z,46.24
2019-05-11T08:24:28.468Z,47.79
2019-05-11T08:26:58.217Z,46.96
2019-05-11T08:29:27.873Z,46.53
2019-05-11T08:31:57.907Z,46.89
2019-05-11T08:34:28.538Z,45.58
2019-05-11T08:36:58.365Z,46.23
2019-05-11T08:39:28.838Z,47.74
2019-05-11T08:41:58.937Z,48.50
2019-05-11T08:44:28.734Z,46.73
2019-05-11T08:46:58.263Z,47.78
2019-05-11T08:49:28.697Z,46.47
2019-05-11T08:51:57.969Z,48.26
2019-05-11T08:54:28.846Z,48.65
2019-05-11T08:56:58.771Z,48.04
2019-05-11T08:59:28.047Z,46.85
2019-05-11T09:01:58.807Z,46.09
2019-05-11T09:04:28.847Z,47.49
2019-05-11T09:06:58.700Z,47.84
2019-05-11T09:09:28.712Z,48.42
2019-05-11T09:11:58.805Z,47.90
2019-05-11T09:14:28.501Z,48.95
2019-05-11T09:16:57.886Z,48.72
2019-05-11T09:19:28.408Z,50.71
2019-05-11T09:21:58.768Z,51.03
2019-05-11T09:24:28.299Z,51.03
2019-05-11T09:26:58.593Z,49.92
2019-05-11T09:29:28.320Z,51.10
2019-05-11T09:31:58.244Z,48.82
2019-05-11T09:34:28.803Z,47.41
2019-05-11T09:36:58.622Z,48.01
2019-05-11T09:39:28.172Z,49.76
2019-05-11T09:41:58.396Z,49.38
2019-05-11T09:44:28.817Z,49.75
2019-05-11T09:47:01.956Z,47.51
2019-05-11T09:49:43.327Z,50.62
2019-05-11T09:51:59.063Z,52.66
2019-05-11T09:54:28.933Z,52.93
2019-05-11T09:56:58.010Z,56.21
2019-05-11T09:59:28.176Z,55.09
2019-05-11T10:01:58.967Z,52.11
2019-05-11T10:04:28.892Z,53.52
2019-05-11T10:06:58.527Z,50.98
2019-05-11T10:09:28.111Z,53.38
2019-05-11T10:11:58.510Z,53.01
2019-05-11T10:14:28.837Z,51.18
2019-05-11T10:16:58.377Z,52.57
2019-05-11T10:19:28.422Z,51.01
2019-05-11T10:21:58.042Z,51.36
2019-05-11T10:24:28.307Z,52.99
2019-05-11T10:26:57.911Z,51.79
2019-05-11T10:29:28.892Z,51.00
2019-05-11T10:31:58.710Z,50.42
2019-05-11T10:34:28.589Z,52.03
2019-05-11T10:36:58.111Z,57.87
2019-05-11T10:39:27.926Z,54.40
2019-05-11T10:41:58.443Z,53.67
2019-05-11T10:44:28.102Z,53.98
2019-05-11T10:46:58.982Z,51.93
2019-05-11T10:49:28.922Z,52.48
2019-05-11T10:51:58.646Z,54.67
2019-05-11T10:54:28.671Z,52.67
2019-05-11T10:56:58.075Z,50.83
2019-05-11T10:59:28.230Z,49.73
2019-05-11T11:01:58.995Z,51.92
2019-05-11T11:04:28.800Z,53.51
2019-05-11T11:06:59.163Z,54.49
2019-05-11T11:09:28.423Z,53.12
2019-05-11T11:11:57.882Z,51.27
2019-05-11T11:14:28.637Z,50.83
2019-05-11T11:16:58.384Z,49.28
2019-05-11T11:19:28.989Z,49.08
2019-05-11T11:22:22.227Z,49.24
2019-05-11T11:24:28.797Z,49.79
2019-05-11T11:26:57.770Z,50.03
2019-05-11T11:29:28.720Z,50.21
2019-05-11T11:31:58.696Z,50.21
2019-05-11T11:34:28.054Z,54.08
2019-05-11T11:36:58.051Z,50.88
2019-05-11T11:39:28.382Z,50.91
2019-05-11T11:41:58.545Z,50.93
2019-05-11T11:44:28.631Z,48.76
2019-05-11T11:46:59.084Z,52.26
2019-05-11T11:49:28.343Z,53.74
2019-05-11T11:51:57.848Z,54.17
2019-05-11T11:54:28.795Z,55.23
2019-05-11T11:56:58.968Z,56.27
2019-05-11T11:59:28.702Z,55.58
2019-05-11T12:01:58.121Z,53.85
2019-05-11T12:04:28.301Z,55.50
2019-05-11T12:06:58.099Z,52.84
2019-05-11T12:09:28.710Z,52.28
2019-05-11T12:11:58.272Z,49.79
2019-05-11T12:14:28.167Z,51.11
2019-05-11T12:17:06.961Z,50.52
2019-05-11T12:19:28.029Z,52.20
2019-05-11T12:21:58.089Z,52.87
2019-05-11T12:24:28.779Z,54.15
2019-05-11T12:26:58.730Z,53.60
2019-05-11T12:29:28.153Z,53.64
2019-05-11T12:31:58.959Z,52.88
2019-05-11T12:34:28.458Z,51.71
2019-05-11T12:36:58.102Z,50.45
2019-05-11T12:39:28.215Z,53.97
2019-05-11T12:41:58.219Z,54.62
2019-05-11T12:44:28.385Z,52.04
2019-05-11T12:46:58.410Z,54.46
2019-05-11T12:49:29.001Z,56.90
2019-05-11T12:51:58.321Z,57.86
2019-05-11T12:54:28.092Z,55.72
2019-05-11T12:56:58.036Z,55.72
2019-05-11T12:59:27.829Z,58.67
2019-05-11T13:01:58.825Z,56.79
2019-05-11T13:04:28.218Z,57.63
2019-05-11T13:06:58.147Z,57.28
2019-05-11T13:09:28.808Z,54.44
2019-05-11T13:11:58.750Z,57.57
2019-05-11T13:14:27.874Z,56.47
2019-05-11T13:16:58.734Z,54.05
2019-05-11T13:19:28.179Z,58.96
2019-05-11T13:21:58.993Z,55.02
2019-05-11T13:24:28.239Z,55.02
2019-05-11T13:26:59.580Z,55.66
2019-05-11T13:29:28.709Z,54.05
2019-05-11T13:31:59.073Z,54.77
2019-05-11T13:34:31.185Z,56.27
2019-05-11T13:36:58.329Z,56.27
2019-05-11T13:39:28.526Z,58.94
2019-05-11T13:41:57.976Z,58.94
2019-05-11T13:44:27.975Z,57.30
2019-05-11T13:46:58.702Z,55.31
2019-05-11T13:49:28.333Z,55.31
2019-05-11T13:51:58.528Z,52.47
2019-05-11T13:54:29.639Z,55.90
2019-05-11T13:56:57.795Z,55.90
2019-05-11T13:59:27.978Z,54.11
2019-05-11T14:01:58.227Z,54.11
2019-05-11T14:04:28.106Z,55.83
2019-05-11T14:06:58.624Z,55.83
2019-05-11T14:09:28.904Z,54.64
2019-05-11T14:11:58.328Z,55.57
2019-05-11T14:14:28.807Z,55.46
2019-05-11T14:16:58.834Z,55.06
2019-05-11T14:19:29.035Z,55.06
2019-05-11T14:21:58.397Z,56.96
2019-05-11T14:24:28.866Z,56.54
2019-05-11T14:26:58.181Z,56.40
2019-05-11T14:29:28.407Z,56.40
2019-05-11T14:31:58.064Z,55.64
2019-05-11T14:34:28.330Z,56.46
2019-05-11T14:36:58.218Z,56.46
2019-05-11T14:39:27.968Z,54.86
2019-05-11T14:41:58.711Z,55.35
2019-05-11T14:44:28.516Z,54.58
2019-05-11T14:46:59.275Z,59.06
2019-05-11T14:49:27.899Z,56.41
2019-05-11T14:51:57.752Z,56.14
2019-05-11T14:54:28.743Z,55.27
2019-05-11T14:56:58.623Z,55.27
2019-05-11T14:59:28.575Z,55.62
2019-05-11T15:01:58.352Z,55.62
2019-05-11T15:04:28.739Z,55.94
2019-05-11T15:06:57.978Z,54.94
2019-05-11T15:09:28.613Z,53.49
2019-05-11T15:11:58.107Z,54.36
2019-05-11T15:14:28.890Z,53.70
2019-05-11T15:16:57.693Z,51.51
2019-05-11T15:19:27.883Z,52.35
2019-05-11T15:21:58.150Z,51.26
2019-05-11T15:24:28.761Z,51.88
2019-05-11T15:26:57.715Z,51.88
2019-05-11T15:29:28.555Z,50.83
2019-05-11T15:31:57.931Z,50.83
2019-05-11T15:34:28.675Z,51.44
2019-05-11T15:36:58.293Z,53.16
2019-05-11T15:39:28.714Z,53.41
2019-05-11T15:42:09.160Z,53.41
2019-05-11T15:44:28.600Z,53.62
2019-05-11T15:46:58.284Z,52.41
2019-05-11T15:49:28.420Z,53.32
2019-05-11T15:51:58.024Z,53.32
2019-05-11T15:54:28.821Z,51.85
2019-05-11T15:56:59.612Z,50.71
2019-05-11T15:59:27.929Z,51.35
2019-05-11T16:01:58.293Z,50.44
2019-05-11T16:04:28.152Z,52.86
2019-05-11T16:06:57.544Z,52.86
2019-05-11T16:09:29.021Z,51.68
2019-05-11T16:11:57.872Z,51.68
2019-05-11T16:14:28.276Z,51.34
2019-05-11T16:16:58.465Z,51.34
2019-05-11T16:19:28.150Z,50.99
2019-05-11T16:21:56.958Z,50.14
2019-05-11T16:24:25.578Z,49.21
2019-05-11T16:26:54.196Z,49.67
2019-05-11T16:29:22.875Z,50.98
2019-05-11T16:31:51.708Z,50.13
2019-05-11T16:34:20.463Z,50.67
2019-05-11T16:36:49.356Z,50.09
2019-05-11T16:39:18.692Z,49.15
2019-05-11T16:41:48.666Z,51.54
2019-05-11T16:44:18.490Z,51.54
2019-05-11T16:46:48.105Z,47.57
2019-05-11T16:49:26.075Z,47.57
2019-05-11T16:51:48.214Z,48.73
2019-05-11T16:54:16.831Z,48.81
2019-05-11T16:56:45.442Z,48.81
2019-05-11T16:59:14.304Z,47.91
2019-05-11T17:01:43.011Z,49.04
2019-05-11T17:04:11.650Z,50.24
2019-05-11T17:06:41.037Z,50.24
2019-05-11T17:09:09.652Z,50.17
2019-05-11T17:11:38.619Z,51.39
2019-05-11T17:14:08.293Z,48.07
2019-05-11T17:16:38.665Z,51.24
2019-05-11T17:19:08.145Z,50.42
2019-05-11T17:21:38.176Z,48.10
2019-05-11T17:24:07.246Z,47.11
2019-05-11T17:26:38.341Z,46.77
2019-05-11T17:29:06.346Z,45.93
2019-05-11T17:31:37.877Z,45.93
2019-05-11T17:34:06.082Z,47.59
2019-05-11T17:36:34.760Z,47.49
2019-05-11T17:39:05.800Z,47.26
2019-05-11T17:41:34.808Z,47.14
2019-05-11T17:44:03.520Z,47.10
2019-05-11T17:46:32.210Z,47.90
2019-05-11T17:49:01.722Z,48.96
2019-05-11T17:51:30.575Z,48.96
2019-05-11T17:53:59.746Z,47.62
2019-05-11T17:56:29.038Z,47.37
2019-05-11T17:58:58.487Z,48.37
2019-05-11T18:01:27.759Z,49.27
2019-05-11T18:03:58.301Z,48.65
2019-05-11T18:06:27.103Z,47.54
2019-05-11T18:08:55.798Z,47.54
2019-05-11T18:11:24.487Z,47.00
2019-05-11T18:13:53.394Z,48.84
2019-05-11T18:16:22.600Z,51.49
2019-05-11T18:18:51.365Z,51.15
2019-05-11T18:21:19.991Z,51.15
2019-05-11T18:23:48.691Z,50.05
2019-05-11T18:26:18.068Z,52.56
2019-05-11T18:28:48.250Z,52.47
2019-05-11T18:31:18.202Z,51.44
2019-05-11T18:33:48.723Z,51.44
2019-05-11T18:36:18.271Z,51.90
2019-05-11T18:38:48.737Z,51.31
2019-05-11T18:41:17.515Z,53.19
2019-05-11T18:43:48.255Z,52.83
2019-05-11T18:46:16.604Z,52.83
2019-05-11T18:48:45.200Z,53.11
2019-05-11T18:51:13.844Z,51.14
2019-05-11T18:53:42.791Z,51.14
2019-05-11T18:56:11.675Z,52.22
2019-05-11T18:58:40.581Z,51.47
2019-05-11T19:01:09.225Z,51.42
2019-05-11T19:03:38.561Z,50.19
2019-05-11T19:06:08.907Z,52.36
2019-05-11T19:08:38.501Z,52.26
2019-05-11T19:11:09.195Z,54.09
2019-05-11T19:13:38.746Z,53.10
2019-05-11T19:16:08.619Z,51.73
2019-05-11T19:18:38.784Z,52.29
2019-05-11T19:21:09.147Z,53.26
2019-05-11T19:23:38.154Z,52.23
2019-05-11T19:26:08.365Z,51.71
2019-05-11T19:28:38.415Z,53.48
2019-05-11T19:31:08.276Z,52.92
2019-05-11T19:33:38.156Z,51.04
2019-05-11T19:36:07.929Z,50.99
2019-05-11T19:38:38.353Z,51.64
2019-05-11T19:41:08.087Z,51.30
2019-05-11T19:43:38.217Z,51.08
2019-05-11T19:46:08.841Z,52.11
2019-05-11T19:48:38.462Z,52.96
2019-05-11T19:51:11.388Z,51.88
2019-05-11T19:53:38.623Z,52.21
2019-05-11T19:56:07.897Z,52.90
2019-05-11T19:58:38.042Z,53.92
2019-05-11T20:01:08.694Z,53.20
2019-05-11T20:03:37.964Z,55.87
2019-05-11T20:06:08.821Z,56.52
2019-05-11T20:08:37.550Z,53.73
2019-05-11T20:11:08.251Z,52.86
2019-05-11T20:13:38.668Z,53.50
2019-05-11T20:16:08.274Z,52.88
2019-05-11T20:18:37.176Z,53.79
2019-05-11T20:21:16.712Z,52.72
2019-05-11T20:23:37.934Z,53.03
2019-05-11T20:26:08.724Z,50.96
2019-05-11T20:28:37.813Z,52.27
2019-05-11T20:31:08.062Z,51.03
2019-05-11T20:33:38.503Z,50.13
2019-05-11T20:36:08.671Z,50.42
2019-05-11T20:38:38.336Z,51.06
2019-05-11T20:41:08.332Z,51.62
2019-05-11T20:43:37.039Z,50.05
2019-05-11T20:46:08.046Z,49.51
2019-05-11T20:48:38.265Z,49.79
2019-05-11T20:51:08.117Z,51.62
2019-05-11T20:53:38.762Z,48.88
2019-05-11T20:56:08.571Z,49.20
2019-05-11T20:58:58.798Z,49.27
2019-05-11T21:01:28.592Z,50.56
2019-05-11T21:03:58.526Z,51.50
2019-05-11T21:06:29.359Z,52.26
2019-05-11T21:08:57.691Z,52.04
2019-05-11T21:11:26.375Z,51.40
2019-05-11T21:13:55.040Z,50.60
2019-05-11T21:16:23.776Z,51.76
2019-05-11T21:18:52.601Z,52.39
2019-05-11T21:21:21.239Z,49.80
2019-05-11T21:23:49.846Z,48.40
2019-05-11T21:26:19.503Z,48.42
2019-05-11T21:28:48.700Z,49.96
2019-05-11T21:31:18.629Z,51.11
2019-05-11T21:33:47.404Z,50.07
2019-05-11T21:36:18.014Z,49.74
2019-05-11T21:38:48.191Z,52.79
2019-05-11T21:41:16.761Z,50.15
2019-05-11T21:43:45.430Z,49.68
2019-05-11T21:46:14.105Z,49.98
2019-05-11T21:48:42.805Z,51.06
2019-05-11T21:51:11.414Z,52.04
2019-05-11T21:53:40.123Z,52.10
2019-05-11T21:56:10.160Z,52.31
2019-05-11T21:58:39.272Z,51.28
2019-05-11T22:01:08.194Z,50.78
2019-05-11T22:03:38.283Z,52.91
2019-05-11T22:06:08.599Z,53.91
2019-05-11T22:08:37.569Z,52.58
2019-05-11T22:11:08.222Z,50.21
2019-05-11T22:13:37.953Z,50.20
2019-05-11T22:16:08.674Z,51.36
2019-05-11T22:18:38.023Z,50.61
2019-05-11T22:21:08.586Z,50.51
2019-05-11T22:23:38.535Z,49.90
2019-05-11T22:26:07.837Z,51.98
2019-05-11T22:28:38.835Z,50.46
2019-05-11T22:31:07.832Z,50.85
2019-05-11T22:33:38.549Z,52.51
2019-05-11T22:36:07.539Z,51.35
2019-05-11T22:38:38.554Z,49.11
2019-05-11T22:41:08.953Z,50.88
2019-05-11T22:43:37.862Z,51.10
2019-05-11T22:46:06.615Z,49.71
2019-05-11T22:48:35.249Z,49.94
2019-05-11T22:51:04.190Z,51.60
2019-05-11T22:53:43.811Z,51.24
2019-05-11T22:56:03.474Z,49.63
2019-05-11T22:58:32.181Z,50.80
2019-05-11T23:01:00.774Z,49.22
2019-05-11T23:03:29.871Z,50.72
2019-05-11T23:05:58.517Z,47.58
2019-05-11T23:08:27.116Z,46.50
2019-05-11T23:10:55.715Z,49.39
2019-05-11T23:13:24.680Z,47.47
2019-05-11T23:15:53.525Z,46.05
2019-05-11T23:18:22.147Z,46.52
2019-05-11T23:20:51.035Z,46.19
2019-05-11T23:23:19.645Z,47.81
2019-05-11T23:25:48.298Z,45.23
2019-05-11T23:28:18.471Z,45.67
2019-05-11T23:30:47.798Z,45.78
2019-05-11T23:33:18.413Z,47.20
2019-05-11T23:35:48.514Z,46.68
2019-05-11T23:38:17.762Z,45.62
2019-05-11T23:40:48.155Z,49.00
2019-05-11T23:43:19.244Z,48.34
2019-05-11T23:45:47.304Z,46.91
2019-05-11T23:48:15.996Z,47.83
2019-05-11T23:50:44.601Z,48.09
2019-05-11T23:53:13.469Z,47.93
2019-05-11T23:55:42.320Z,46.61
2019-05-11T23:58:10.934Z,46.41
